sensor_id;sensor_type;location;lat;lon;timestamp;P1;durP1;ratioP1;P2;durP2;ratioP2
16662;SDS011;8445;51.270;9.434;2024-01-15T00:00:43;27.63;;;18.60;;
16662;SDS011;8445;51.270;9.434;2024-01-15T00:03:10;25.53;;;18.70;;
16662;SDS011;8445;51.270;9.434;2024-01-15T00:05:37;25.17;;;18.70;;
16662;SDS011;8445;51.270;9.434;2024-01-15T00:08:03;26.53;;;17.37;;
16662;SDS011;8445;51.270;9.434;2024-01-15T00:10:29;22.87;;;18.17;;
16662;SDS011;8445;51.270;9.434;2024-01-15T00:12:55;25.57;;;17.33;;
16662;SDS011;8445;51.270;9.434;2024-01-15T00:15:22;27.00;;;17.83;;
16662;SDS011;8445;51.270;9.434;2024-01-15T00:17:49;25.50;;;17.33;;
16662;SDS011;8445;51.270;9.434;2024-01-15T00:20:15;22.47;;;17.50;;
16662;SDS011;8445;51.270;9.434;2024-01-15T00:22:41;23.93;;;16.97;;
16662;SDS011;8445;51.270;9.434;2024-01-15T00:25:08;24.63;;;18.30;;
16662;SDS011;8445;51.270;9.434;2024-01-15T00:27:34;27.17;;;19.10;;
16662;SDS011;8445;51.270;9.434;2024-01-15T00:30:00;22.63;;;16.30;;
16662;SDS011;8445;51.270;9.434;2024-01-15T00:32:27;20.87;;;16.60;;
16662;SDS011;8445;51.270;9.434;2024-01-15T00:34:53;20.93;;;16.40;;
16662;SDS011;8445;51.270;9.434;2024-01-15T00:37:19;23.67;;;17.57;;
16662;SDS011;8445;51.270;9.434;2024-01-15T00:39:45;22.83;;;16.40;;
16662;SDS011;8445;51.270;9.434;2024-01-15T00:42:11;19.87;;;15.47;;
16662;SDS011;8445;51.270;9.434;2024-01-15T00:44:39;23.20;;;16.87;;
16662;SDS011;8445;51.270;9.434;2024-01-15T00:47:05;17.17;;;13.87;;
16662;SDS011;8445;51.270;9.434;2024-01-15T00:49:32;17.33;;;13.83;;
16662;SDS011;8445;51.270;9.434;2024-01-15T00:51:59;14.53;;;13.17;;
16662;SDS011;8445;51.270;9.434;2024-01-15T00:54:25;16.40;;;13.07;;
16662;SDS011;8445;51.270;9.434;2024-01-15T00:56:53;16.30;;;13.03;;
16662;SDS011;8445;51.270;9.434;2024-01-15T00:59:20;18.23;;;14.10;;
16662;SDS011;8445;51.270;9.434;2024-01-15T01:01:46;16.63;;;14.03;;
16662;SDS011;8445;51.270;9.434;2024-01-15T01:04:12;18.50;;;14.30;;
16662;SDS011;8445;51.270;9.434;2024-01-15T01:06:47;18.13;;;14.17;;
16662;SDS011;8445;51.270;9.434;2024-01-15T01:09:13;16.07;;;14.40;;
16662;SDS011;8445;51.270;9.434;2024-01-15T01:11:39;17.23;;;14.30;;
16662;SDS011;8445;51.270;9.434;2024-01-15T01:14:06;15.97;;;12.93;;
16662;SDS011;8445;51.270;9.434;2024-01-15T01:16:32;13.60;;;12.20;;
16662;SDS011;8445;51.270;9.434;2024-01-15T01:19:06;13.97;;;12.40;;
16662;SDS011;8445;51.270;9.434;2024-01-15T01:21:33;13.83;;;11.93;;
16662;SDS011;8445;51.270;9.434;2024-01-15T01:23:59;14.40;;;12.67;;
16662;SDS011;8445;51.270;9.434;2024-01-15T01:26:25;13.90;;;12.40;;
16662;SDS011;8445;51.270;9.434;2024-01-15T01:28:51;15.23;;;13.63;;
16662;SDS011;8445;51.270;9.434;2024-01-15T01:31:17;16.70;;;14.53;;
16662;SDS011;8445;51.270;9.434;2024-01-15T01:33:44;20.17;;;14.30;;
16662;SDS011;8445;51.270;9.434;2024-01-15T01:36:10;16.00;;;13.53;;
16662;SDS011;8445;51.270;9.434;2024-01-15T01:38:36;17.33;;;13.87;;
16662;SDS011;8445;51.270;9.434;2024-01-15T01:41:03;16.07;;;14.47;;
16662;SDS011;8445;51.270;9.434;2024-01-15T01:43:29;18.23;;;13.67;;
16662;SDS011;8445;51.270;9.434;2024-01-15T01:45:57;17.93;;;15.20;;
16662;SDS011;8445;51.270;9.434;2024-01-15T01:48:24;16.47;;;14.17;;
16662;SDS011;8445;51.270;9.434;2024-01-15T01:50:52;18.17;;;13.63;;
16662;SDS011;8445;51.270;9.434;2024-01-15T01:53:23;16.37;;;13.83;;
16662;SDS011;8445;51.270;9.434;2024-01-15T01:55:55;16.47;;;13.40;;
16662;SDS011;8445;51.270;9.434;2024-01-15T01:58:23;16.00;;;13.67;;
16662;SDS011;8445;51.270;9.434;2024-01-15T02:00:50;16.47;;;13.67;;
16662;SDS011;8445;51.270;9.434;2024-01-15T02:03:17;15.63;;;14.00;;
16662;SDS011;8445;51.270;9.434;2024-01-15T02:05:43;15.90;;;13.40;;
16662;SDS011;8445;51.270;9.434;2024-01-15T02:08:10;16.93;;;13.80;;
16662;SDS011;8445;51.270;9.434;2024-01-15T02:10:37;17.17;;;14.50;;
16662;SDS011;8445;51.270;9.434;2024-01-15T02:13:04;15.03;;;13.30;;
16662;SDS011;8445;51.270;9.434;2024-01-15T02:15:30;14.57;;;13.03;;
16662;SDS011;8445;51.270;9.434;2024-01-15T02:18:04;16.20;;;13.77;;
16662;SDS011;8445;51.270;9.434;2024-01-15T02:20:35;17.50;;;13.30;;
16662;SDS011;8445;51.270;9.434;2024-01-15T02:23:06;14.33;;;12.60;;
16662;SDS011;8445;51.270;9.434;2024-01-15T02:25:41;16.63;;;13.17;;
16662;SDS011;8445;51.270;9.434;2024-01-15T02:28:10;16.20;;;13.07;;
16662;SDS011;8445;51.270;9.434;2024-01-15T02:30:39;13.53;;;12.10;;
16662;SDS011;8445;51.270;9.434;2024-01-15T02:33:10;14.23;;;12.27;;
16662;SDS011;8445;51.270;9.434;2024-01-15T02:35:37;16.53;;;12.83;;
16662;SDS011;8445;51.270;9.434;2024-01-15T02:38:03;13.70;;;12.23;;
16662;SDS011;8445;51.270;9.434;2024-01-15T02:40:30;12.93;;;11.63;;
16662;SDS011;8445;51.270;9.434;2024-01-15T02:42:57;12.67;;;11.47;;
16662;SDS011;8445;51.270;9.434;2024-01-15T02:45:23;13.83;;;12.10;;
16662;SDS011;8445;51.270;9.434;2024-01-15T02:47:49;17.77;;;14.07;;
16662;SDS011;8445;51.270;9.434;2024-01-15T02:50:15;17.77;;;12.60;;
16662;SDS011;8445;51.270;9.434;2024-01-15T02:52:41;13.60;;;12.40;;
16662;SDS011;8445;51.270;9.434;2024-01-15T02:55:08;14.10;;;12.67;;
16662;SDS011;8445;51.270;9.434;2024-01-15T02:57:34;12.67;;;11.47;;
16662;SDS011;8445;51.270;9.434;2024-01-15T03:00:00;15.53;;;11.80;;
16662;SDS011;8445;51.270;9.434;2024-01-15T03:02:27;13.00;;;11.80;;
16662;SDS011;8445;51.270;9.434;2024-01-15T03:04:52;13.93;;;12.43;;
16662;SDS011;8445;51.270;9.434;2024-01-15T03:07:18;15.27;;;13.57;;
16662;SDS011;8445;51.270;9.434;2024-01-15T03:09:44;14.40;;;13.00;;
16662;SDS011;8445;51.270;9.434;2024-01-15T03:12:10;16.63;;;13.47;;
16662;SDS011;8445;51.270;9.434;2024-01-15T03:14:36;16.13;;;13.33;;
16662;SDS011;8445;51.270;9.434;2024-01-15T03:17:02;15.40;;;12.90;;
16662;SDS011;8445;51.270;9.434;2024-01-15T03:19:28;13.93;;;12.50;;
16662;SDS011;8445;51.270;9.434;2024-01-15T03:21:54;13.87;;;12.43;;
16662;SDS011;8445;51.270;9.434;2024-01-15T03:24:20;14.07;;;11.73;;
16662;SDS011;8445;51.270;9.434;2024-01-15T03:26:45;14.27;;;12.77;;
16662;SDS011;8445;51.270;9.434;2024-01-15T03:29:11;13.83;;;11.83;;
16662;SDS011;8445;51.270;9.434;2024-01-15T03:31:37;13.67;;;11.73;;
16662;SDS011;8445;51.270;9.434;2024-01-15T03:34:03;12.83;;;11.60;;
16662;SDS011;8445;51.270;9.434;2024-01-15T03:36:29;13.30;;;11.93;;
16662;SDS011;8445;51.270;9.434;2024-01-15T03:38:55;12.73;;;11.57;;
16662;SDS011;8445;51.270;9.434;2024-01-15T03:41:21;12.87;;;11.67;;
16662;SDS011;8445;51.270;9.434;2024-01-15T03:43:47;13.63;;;12.23;;
16662;SDS011;8445;51.270;9.434;2024-01-15T03:46:12;13.90;;;12.53;;
16662;SDS011;8445;51.270;9.434;2024-01-15T03:48:38;14.30;;;12.90;;
16662;SDS011;8445;51.270;9.434;2024-01-15T03:51:04;14.57;;;12.77;;
16662;SDS011;8445;51.270;9.434;2024-01-15T03:53:30;15.50;;;12.93;;
16662;SDS011;8445;51.270;9.434;2024-01-15T03:55:57;14.33;;;12.83;;
16662;SDS011;8445;51.270;9.434;2024-01-15T03:58:23;14.47;;;12.87;;
16662;SDS011;8445;51.270;9.434;2024-01-15T04:00:49;14.70;;;13.10;;
16662;SDS011;8445;51.270;9.434;2024-01-15T04:03:15;14.27;;;12.73;;
16662;SDS011;8445;51.270;9.434;2024-01-15T04:05:41;14.43;;;12.93;;
16662;SDS011;8445;51.270;9.434;2024-01-15T04:08:07;14.27;;;12.87;;
16662;SDS011;8445;51.270;9.434;2024-01-15T04:10:33;15.27;;;13.67;;
16662;SDS011;8445;51.270;9.434;2024-01-15T04:12:58;14.87;;;12.90;;
16662;SDS011;8445;51.270;9.434;2024-01-15T04:15:25;21.20;;;13.83;;
16662;SDS011;8445;51.270;9.434;2024-01-15T04:17:51;14.73;;;13.23;;
16662;SDS011;8445;51.270;9.434;2024-01-15T04:20:17;14.13;;;12.67;;
16662;SDS011;8445;51.270;9.434;2024-01-15T04:22:43;15.53;;;12.60;;
16662;SDS011;8445;51.270;9.434;2024-01-15T04:25:09;14.50;;;13.00;;
16662;SDS011;8445;51.270;9.434;2024-01-15T04:27:35;13.23;;;11.93;;
16662;SDS011;8445;51.270;9.434;2024-01-15T04:30:01;13.93;;;12.40;;
16662;SDS011;8445;51.270;9.434;2024-01-15T04:32:27;13.83;;;12.03;;
16662;SDS011;8445;51.270;9.434;2024-01-15T04:34:53;13.93;;;12.53;;
16662;SDS011;8445;51.270;9.434;2024-01-15T04:37:20;13.93;;;12.53;;
16662;SDS011;8445;51.270;9.434;2024-01-15T04:39:46;13.67;;;12.23;;
16662;SDS011;8445;51.270;9.434;2024-01-15T04:42:12;14.07;;;12.60;;
16662;SDS011;8445;51.270;9.434;2024-01-15T04:44:38;14.70;;;13.13;;
16662;SDS011;8445;51.270;9.434;2024-01-15T04:47:04;14.23;;;12.60;;
16662;SDS011;8445;51.270;9.434;2024-01-15T04:49:30;13.50;;;11.30;;
16662;SDS011;8445;51.270;9.434;2024-01-15T04:51:56;13.10;;;11.83;;
16662;SDS011;8445;51.270;9.434;2024-01-15T04:54:21;12.30;;;11.07;;
16662;SDS011;8445;51.270;9.434;2024-01-15T04:56:49;13.40;;;12.00;;
16662;SDS011;8445;51.270;9.434;2024-01-15T04:59:15;13.33;;;11.47;;
16662;SDS011;8445;51.270;9.434;2024-01-15T05:01:41;13.47;;;12.17;;
16662;SDS011;8445;51.270;9.434;2024-01-15T05:04:07;13.47;;;12.17;;
16662;SDS011;8445;51.270;9.434;2024-01-15T05:06:32;14.07;;;12.47;;
16662;SDS011;8445;51.270;9.434;2024-01-15T05:08:58;15.77;;;12.40;;
16662;SDS011;8445;51.270;9.434;2024-01-15T05:11:24;12.90;;;11.57;;
16662;SDS011;8445;51.270;9.434;2024-01-15T05:13:51;13.00;;;11.90;;
16662;SDS011;8445;51.270;9.434;2024-01-15T05:16:17;13.40;;;12.17;;
16662;SDS011;8445;51.270;9.434;2024-01-15T05:18:42;13.30;;;12.07;;
16662;SDS011;8445;51.270;9.434;2024-01-15T05:21:08;13.30;;;11.93;;
16662;SDS011;8445;51.270;9.434;2024-01-15T05:23:34;13.27;;;12.00;;
16662;SDS011;8445;51.270;9.434;2024-01-15T05:26:03;14.07;;;12.57;;
16662;SDS011;8445;51.270;9.434;2024-01-15T05:28:34;13.10;;;11.80;;
16662;SDS011;8445;51.270;9.434;2024-01-15T05:31:05;11.93;;;10.83;;
16662;SDS011;8445;51.270;9.434;2024-01-15T05:33:38;13.30;;;11.90;;
16662;SDS011;8445;51.270;9.434;2024-01-15T05:36:04;13.87;;;12.00;;
16662;SDS011;8445;51.270;9.434;2024-01-15T05:38:31;13.20;;;11.90;;
16662;SDS011;8445;51.270;9.434;2024-01-15T05:40:57;14.57;;;11.90;;
16662;SDS011;8445;51.270;9.434;2024-01-15T05:43:23;12.97;;;11.73;;
16662;SDS011;8445;51.270;9.434;2024-01-15T05:45:48;13.33;;;12.03;;
16662;SDS011;8445;51.270;9.434;2024-01-15T05:48:14;12.90;;;11.50;;
16662;SDS011;8445;51.270;9.434;2024-01-15T05:50:41;13.70;;;11.63;;
16662;SDS011;8445;51.270;9.434;2024-01-15T05:53:07;13.00;;;11.87;;
16662;SDS011;8445;51.270;9.434;2024-01-15T05:55:33;13.80;;;11.73;;
16662;SDS011;8445;51.270;9.434;2024-01-15T05:58:01;13.73;;;11.60;;
16662;SDS011;8445;51.270;9.434;2024-01-15T06:00:27;13.83;;;12.40;;
16662;SDS011;8445;51.270;9.434;2024-01-15T06:02:52;21.63;;;13.57;;
16662;SDS011;8445;51.270;9.434;2024-01-15T06:05:18;14.70;;;12.47;;
16662;SDS011;8445;51.270;9.434;2024-01-15T06:07:44;14.70;;;12.80;;
16662;SDS011;8445;51.270;9.434;2024-01-15T06:10:10;14.53;;;12.80;;
16662;SDS011;8445;51.270;9.434;2024-01-15T06:12:36;13.67;;;12.37;;
16662;SDS011;8445;51.270;9.434;2024-01-15T06:15:02;13.27;;;11.93;;
16662;SDS011;8445;51.270;9.434;2024-01-15T06:17:28;13.57;;;11.97;;
16662;SDS011;8445;51.270;9.434;2024-01-15T06:19:54;14.10;;;12.20;;
16662;SDS011;8445;51.270;9.434;2024-01-15T06:22:20;16.30;;;12.50;;
16662;SDS011;8445;51.270;9.434;2024-01-15T06:24:45;13.77;;;12.33;;
16662;SDS011;8445;51.270;9.434;2024-01-15T06:27:11;19.70;;;12.13;;
16662;SDS011;8445;51.270;9.434;2024-01-15T06:29:37;13.63;;;11.40;;
16662;SDS011;8445;51.270;9.434;2024-01-15T06:32:04;14.87;;;11.50;;
16662;SDS011;8445;51.270;9.434;2024-01-15T06:34:30;12.90;;;11.60;;
16662;SDS011;8445;51.270;9.434;2024-01-15T06:36:56;13.37;;;11.77;;
16662;SDS011;8445;51.270;9.434;2024-01-15T06:39:23;13.90;;;11.40;;
16662;SDS011;8445;51.270;9.434;2024-01-15T06:41:48;14.23;;;10.73;;
16662;SDS011;8445;51.270;9.434;2024-01-15T06:44:14;15.37;;;10.50;;
16662;SDS011;8445;51.270;9.434;2024-01-15T06:46:44;13.33;;;11.27;;
16662;SDS011;8445;51.270;9.434;2024-01-15T06:49:11;11.83;;;10.63;;
16662;SDS011;8445;51.270;9.434;2024-01-15T06:51:37;12.37;;;10.30;;
16662;SDS011;8445;51.270;9.434;2024-01-15T06:54:06;12.30;;;10.77;;
16662;SDS011;8445;51.270;9.434;2024-01-15T06:56:32;13.00;;;10.00;;
16662;SDS011;8445;51.270;9.434;2024-01-15T06:58:58;11.43;;;9.80;;
16662;SDS011;8445;51.270;9.434;2024-01-15T07:01:24;19.00;;;10.77;;
16662;SDS011;8445;51.270;9.434;2024-01-15T07:03:50;14.80;;;11.50;;
16662;SDS011;8445;51.270;9.434;2024-01-15T07:06:16;11.77;;;10.57;;
16662;SDS011;8445;51.270;9.434;2024-01-15T07:08:42;15.27;;;10.93;;
16662;SDS011;8445;51.270;9.434;2024-01-15T07:11:08;11.73;;;10.47;;
16662;SDS011;8445;51.270;9.434;2024-01-15T07:13:36;17.27;;;10.77;;
16662;SDS011;8445;51.270;9.434;2024-01-15T07:16:02;16.20;;;11.13;;
16662;SDS011;8445;51.270;9.434;2024-01-15T07:18:28;12.53;;;10.83;;
16662;SDS011;8445;51.270;9.434;2024-01-15T07:20:54;13.47;;;9.93;;
16662;SDS011;8445;51.270;9.434;2024-01-15T07:23:20;11.17;;;9.97;;
16662;SDS011;8445;51.270;9.434;2024-01-15T07:25:46;15.27;;;10.63;;
16662;SDS011;8445;51.270;9.434;2024-01-15T07:28:12;13.57;;;9.40;;
16662;SDS011;8445;51.270;9.434;2024-01-15T07:30:38;13.90;;;9.77;;
16662;SDS011;8445;51.270;9.434;2024-01-15T07:33:04;12.83;;;10.73;;
16662;SDS011;8445;51.270;9.434;2024-01-15T07:35:30;14.10;;;11.03;;
16662;SDS011;8445;51.270;9.434;2024-01-15T07:37:57;14.67;;;11.90;;
16662;SDS011;8445;51.270;9.434;2024-01-15T07:40:24;16.20;;;11.13;;
16662;SDS011;8445;51.270;9.434;2024-01-15T07:42:50;15.37;;;10.47;;
16662;SDS011;8445;51.270;9.434;2024-01-15T07:45:16;13.03;;;11.57;;
16662;SDS011;8445;51.270;9.434;2024-01-15T07:47:43;13.77;;;11.80;;
16662;SDS011;8445;51.270;9.434;2024-01-15T07:50:09;13.17;;;11.40;;
16662;SDS011;8445;51.270;9.434;2024-01-15T07:52:35;15.70;;;11.33;;
16662;SDS011;8445;51.270;9.434;2024-01-15T07:55:01;14.87;;;11.70;;
16662;SDS011;8445;51.270;9.434;2024-01-15T07:57:31;11.77;;;10.40;;
16662;SDS011;8445;51.270;9.434;2024-01-15T07:59:57;14.83;;;11.90;;
16662;SDS011;8445;51.270;9.434;2024-01-15T08:02:23;18.80;;;11.20;;
16662;SDS011;8445;51.270;9.434;2024-01-15T08:04:50;16.47;;;12.27;;
16662;SDS011;8445;51.270;9.434;2024-01-15T08:07:23;16.33;;;11.90;;
16662;SDS011;8445;51.270;9.434;2024-01-15T08:09:52;13.73;;;11.13;;
16662;SDS011;8445;51.270;9.434;2024-01-15T08:12:20;14.60;;;11.37;;
16662;SDS011;8445;51.270;9.434;2024-01-15T08:14:47;15.77;;;11.93;;
16662;SDS011;8445;51.270;9.434;2024-01-15T08:17:15;13.03;;;11.53;;
16662;SDS011;8445;51.270;9.434;2024-01-15T08:19:42;17.10;;;10.87;;
16662;SDS011;8445;51.270;9.434;2024-01-15T08:22:08;14.10;;;12.20;;
16662;SDS011;8445;51.270;9.434;2024-01-15T08:24:35;14.00;;;11.73;;
16662;SDS011;8445;51.270;9.434;2024-01-15T08:27:01;16.03;;;12.07;;
16662;SDS011;8445;51.270;9.434;2024-01-15T08:29:27;15.37;;;12.03;;
16662;SDS011;8445;51.270;9.434;2024-01-15T08:31:52;17.07;;;11.80;;
16662;SDS011;8445;51.270;9.434;2024-01-15T08:34:19;13.80;;;11.63;;
16662;SDS011;8445;51.270;9.434;2024-01-15T08:36:45;17.50;;;11.90;;
16662;SDS011;8445;51.270;9.434;2024-01-15T08:39:11;15.27;;;11.63;;
16662;SDS011;8445;51.270;9.434;2024-01-15T08:41:37;18.50;;;11.80;;
16662;SDS011;8445;51.270;9.434;2024-01-15T08:44:03;15.10;;;11.83;;
16662;SDS011;8445;51.270;9.434;2024-01-15T08:46:29;16.03;;;12.03;;
16662;SDS011;8445;51.270;9.434;2024-01-15T08:48:56;14.80;;;12.63;;
16662;SDS011;8445;51.270;9.434;2024-01-15T08:51:22;15.47;;;11.47;;
16662;SDS011;8445;51.270;9.434;2024-01-15T08:53:51;11.67;;;10.43;;
16662;SDS011;8445;51.270;9.434;2024-01-15T08:56:20;14.10;;;11.43;;
16662;SDS011;8445;51.270;9.434;2024-01-15T08:58:51;13.23;;;11.17;;
16662;SDS011;8445;51.270;9.434;2024-01-15T09:01:17;13.70;;;12.23;;
16662;SDS011;8445;51.270;9.434;2024-01-15T09:03:44;13.50;;;11.33;;
16662;SDS011;8445;51.270;9.434;2024-01-15T09:06:12;14.67;;;11.17;;
16662;SDS011;8445;51.270;9.434;2024-01-15T09:08:41;13.93;;;11.60;;
16662;SDS011;8445;51.270;9.434;2024-01-15T09:11:07;12.17;;;10.87;;
16662;SDS011;8445;51.270;9.434;2024-01-15T09:13:33;13.03;;;10.77;;
16662;SDS011;8445;51.270;9.434;2024-01-15T09:15:58;14.57;;;10.33;;
16662;SDS011;8445;51.270;9.434;2024-01-15T09:18:25;14.13;;;10.13;;
16662;SDS011;8445;51.270;9.434;2024-01-15T09:20:51;14.03;;;10.43;;
16662;SDS011;8445;51.270;9.434;2024-01-15T09:23:17;13.57;;;11.63;;
16662;SDS011;8445;51.270;9.434;2024-01-15T09:25:43;13.47;;;11.17;;
16662;SDS011;8445;51.270;9.434;2024-01-15T09:28:09;14.70;;;10.77;;
16662;SDS011;8445;51.270;9.434;2024-01-15T09:30:35;15.80;;;11.27;;
16662;SDS011;8445;51.270;9.434;2024-01-15T09:33:01;13.43;;;11.80;;
16662;SDS011;8445;51.270;9.434;2024-01-15T09:35:29;15.27;;;11.13;;
16662;SDS011;8445;51.270;9.434;2024-01-15T09:37:56;13.60;;;10.53;;
16662;SDS011;8445;51.270;9.434;2024-01-15T09:40:22;14.97;;;10.73;;
16662;SDS011;8445;51.270;9.434;2024-01-15T09:42:53;14.83;;;10.87;;
16662;SDS011;8445;51.270;9.434;2024-01-15T09:45:21;12.10;;;10.43;;
16662;SDS011;8445;51.270;9.434;2024-01-15T09:47:48;14.17;;;10.93;;
16662;SDS011;8445;51.270;9.434;2024-01-15T09:50:15;16.60;;;11.80;;
16662;SDS011;8445;51.270;9.434;2024-01-15T09:52:41;13.57;;;11.57;;
16662;SDS011;8445;51.270;9.434;2024-01-15T09:55:09;13.97;;;10.97;;
16662;SDS011;8445;51.270;9.434;2024-01-15T09:57:37;16.47;;;11.47;;
16662;SDS011;8445;51.270;9.434;2024-01-15T10:00:06;15.23;;;11.10;;
16662;SDS011;8445;51.270;9.434;2024-01-15T10:02:35;16.03;;;9.93;;
16662;SDS011;8445;51.270;9.434;2024-01-15T10:05:02;15.57;;;10.83;;
16662;SDS011;8445;51.270;9.434;2024-01-15T10:07:29;14.80;;;11.43;;
16662;SDS011;8445;51.270;9.434;2024-01-15T10:10:00;15.00;;;11.20;;
16662;SDS011;8445;51.270;9.434;2024-01-15T10:12:26;16.27;;;11.13;;
16662;SDS011;8445;51.270;9.434;2024-01-15T10:14:52;13.83;;;11.33;;
16662;SDS011;8445;51.270;9.434;2024-01-15T10:17:18;15.90;;;12.03;;
16662;SDS011;8445;51.270;9.434;2024-01-15T10:19:48;14.87;;;11.60;;
16662;SDS011;8445;51.270;9.434;2024-01-15T10:22:15;13.17;;;11.27;;
16662;SDS011;8445;51.270;9.434;2024-01-15T10:24:43;14.83;;;11.30;;
16662;SDS011;8445;51.270;9.434;2024-01-15T10:27:11;13.83;;;11.40;;
16662;SDS011;8445;51.270;9.434;2024-01-15T10:29:37;13.77;;;11.37;;
16662;SDS011;8445;51.270;9.434;2024-01-15T10:32:07;12.27;;;10.93;;
16662;SDS011;8445;51.270;9.434;2024-01-15T10:34:37;15.07;;;11.07;;
16662;SDS011;8445;51.270;9.434;2024-01-15T10:37:08;13.80;;;11.73;;
16662;SDS011;8445;51.270;9.434;2024-01-15T10:39:35;16.07;;;11.67;;
16662;SDS011;8445;51.270;9.434;2024-01-15T10:42:02;13.47;;;12.10;;
16662;SDS011;8445;51.270;9.434;2024-01-15T10:44:31;12.17;;;10.87;;
16662;SDS011;8445;51.270;9.434;2024-01-15T10:46:58;13.67;;;11.27;;
16662;SDS011;8445;51.270;9.434;2024-01-15T10:49:24;12.53;;;11.07;;
16662;SDS011;8445;51.270;9.434;2024-01-15T10:51:52;13.27;;;11.00;;
16662;SDS011;8445;51.270;9.434;2024-01-15T10:54:24;14.93;;;11.30;;
16662;SDS011;8445;51.270;9.434;2024-01-15T10:56:52;15.83;;;11.07;;
16662;SDS011;8445;51.270;9.434;2024-01-15T10:59:21;14.17;;;10.70;;
16662;SDS011;8445;51.270;9.434;2024-01-15T11:01:54;13.60;;;11.20;;
16662;SDS011;8445;51.270;9.434;2024-01-15T11:04:21;16.93;;;12.03;;
16662;SDS011;8445;51.270;9.434;2024-01-15T11:06:52;13.43;;;10.67;;
16662;SDS011;8445;51.270;9.434;2024-01-15T11:09:19;16.07;;;11.77;;
16662;SDS011;8445;51.270;9.434;2024-01-15T11:11:50;18.30;;;12.13;;
16662;SDS011;8445;51.270;9.434;2024-01-15T11:17:15;17.40;;;12.20;;
16662;SDS011;8445;51.270;9.434;2024-01-15T11:19:43;16.13;;;12.53;;
16662;SDS011;8445;51.270;9.434;2024-01-15T11:24:56;18.33;;;11.50;;
16662;SDS011;8445;51.270;9.434;2024-01-15T11:27:40;15.67;;;11.90;;
16662;SDS011;8445;51.270;9.434;2024-01-15T11:30:18;15.87;;;12.33;;
16662;SDS011;8445;51.270;9.434;2024-01-15T11:32:45;17.93;;;12.80;;
16662;SDS011;8445;51.270;9.434;2024-01-15T11:35:12;18.20;;;13.40;;
16662;SDS011;8445;51.270;9.434;2024-01-15T11:43:01;17.03;;;11.90;;
16662;SDS011;8445;51.270;9.434;2024-01-15T11:45:29;15.27;;;11.60;;
16662;SDS011;8445;51.270;9.434;2024-01-15T11:48:08;16.90;;;12.13;;
16662;SDS011;8445;51.270;9.434;2024-01-15T11:50:44;14.03;;;10.97;;
16662;SDS011;8445;51.270;9.434;2024-01-15T11:56:16;12.67;;;10.17;;
16662;SDS011;8445;51.270;9.434;2024-01-15T11:58:47;13.23;;;9.60;;
16662;SDS011;8445;51.270;9.434;2024-01-15T12:01:15;12.00;;;9.27;;
16662;SDS011;8445;51.270;9.434;2024-01-15T12:03:47;11.80;;;8.27;;
16662;SDS011;8445;51.270;9.434;2024-01-15T12:06:13;11.23;;;8.97;;
16662;SDS011;8445;51.270;9.434;2024-01-15T12:08:40;9.83;;;8.83;;
16662;SDS011;8445;51.270;9.434;2024-01-15T12:11:07;9.43;;;8.53;;
16662;SDS011;8445;51.270;9.434;2024-01-15T12:13:41;9.53;;;8.63;;
16662;SDS011;8445;51.270;9.434;2024-01-15T12:16:07;9.97;;;8.63;;
16662;SDS011;8445;51.270;9.434;2024-01-15T12:18:33;8.53;;;7.73;;
16662;SDS011;8445;51.270;9.434;2024-01-15T12:20:59;9.27;;;7.60;;
16662;SDS011;8445;51.270;9.434;2024-01-15T12:23:25;6.83;;;6.43;;
16662;SDS011;8445;51.270;9.434;2024-01-15T12:25:52;10.63;;;7.47;;
16662;SDS011;8445;51.270;9.434;2024-01-15T12:28:18;8.37;;;7.57;;
16662;SDS011;8445;51.270;9.434;2024-01-15T12:30:46;6.70;;;6.10;;
16662;SDS011;8445;51.270;9.434;2024-01-15T12:33:14;5.60;;;5.30;;
16662;SDS011;8445;51.270;9.434;2024-01-15T12:35:40;5.97;;;5.47;;
16662;SDS011;8445;51.270;9.434;2024-01-15T12:38:06;4.77;;;4.47;;
16662;SDS011;8445;51.270;9.434;2024-01-15T12:40:33;4.80;;;4.47;;
16662;SDS011;8445;51.270;9.434;2024-01-15T12:43:02;4.83;;;4.53;;
16662;SDS011;8445;51.270;9.434;2024-01-15T12:45:36;4.77;;;4.47;;
16662;SDS011;8445;51.270;9.434;2024-01-15T12:48:06;4.70;;;4.40;;
16662;SDS011;8445;51.270;9.434;2024-01-15T12:50:38;4.63;;;4.33;;
16662;SDS011;8445;51.270;9.434;2024-01-15T12:53:15;4.40;;;4.10;;
16662;SDS011;8445;51.270;9.434;2024-01-15T12:55:45;6.03;;;4.30;;
16662;SDS011;8445;51.270;9.434;2024-01-15T12:58:21;4.90;;;4.60;;
16662;SDS011;8445;51.270;9.434;2024-01-15T13:01:05;4.80;;;4.60;;
16662;SDS011;8445;51.270;9.434;2024-01-15T13:03:41;4.57;;;4.37;;
16662;SDS011;8445;51.270;9.434;2024-01-15T13:06:10;4.80;;;4.50;;
16662;SDS011;8445;51.270;9.434;2024-01-15T13:08:40;4.97;;;4.60;;
16662;SDS011;8445;51.270;9.434;2024-01-15T13:11:09;4.90;;;4.60;;
16662;SDS011;8445;51.270;9.434;2024-01-15T13:13:39;5.00;;;4.10;;
16662;SDS011;8445;51.270;9.434;2024-01-15T13:16:06;5.23;;;4.60;;
16662;SDS011;8445;51.270;9.434;2024-01-15T13:18:33;4.90;;;4.60;;
16662;SDS011;8445;51.270;9.434;2024-01-15T13:21:00;4.70;;;4.40;;
16662;SDS011;8445;51.270;9.434;2024-01-15T13:23:28;4.53;;;4.23;;
16662;SDS011;8445;51.270;9.434;2024-01-15T13:25:55;5.23;;;4.50;;
16662;SDS011;8445;51.270;9.434;2024-01-15T13:28:26;4.50;;;4.13;;
16662;SDS011;8445;51.270;9.434;2024-01-15T13:30:54;5.30;;;4.90;;
16662;SDS011;8445;51.270;9.434;2024-01-15T13:33:20;5.30;;;4.80;;
16662;SDS011;8445;51.270;9.434;2024-01-15T13:35:46;4.53;;;4.23;;
16662;SDS011;8445;51.270;9.434;2024-01-15T13:38:16;7.43;;;5.00;;
16662;SDS011;8445;51.270;9.434;2024-01-15T13:40:43;5.20;;;4.70;;
16662;SDS011;8445;51.270;9.434;2024-01-15T13:43:12;5.07;;;4.60;;
16662;SDS011;8445;51.270;9.434;2024-01-15T13:45:40;5.37;;;4.87;;
16662;SDS011;8445;51.270;9.434;2024-01-15T13:48:06;5.23;;;4.70;;
16662;SDS011;8445;51.270;9.434;2024-01-15T13:50:36;6.07;;;4.20;;
16662;SDS011;8445;51.270;9.434;2024-01-15T13:53:02;5.37;;;4.90;;
16662;SDS011;8445;51.270;9.434;2024-01-15T13:55:29;5.00;;;4.70;;
16662;SDS011;8445;51.270;9.434;2024-01-15T13:57:55;8.37;;;5.10;;
16662;SDS011;8445;51.270;9.434;2024-01-15T14:00:21;5.03;;;4.50;;
16662;SDS011;8445;51.270;9.434;2024-01-15T14:02:48;7.03;;;4.70;;
16662;SDS011;8445;51.270;9.434;2024-01-15T14:05:14;4.57;;;4.27;;
16662;SDS011;8445;51.270;9.434;2024-01-15T14:07:41;5.00;;;4.57;;
16662;SDS011;8445;51.270;9.434;2024-01-15T14:10:08;4.77;;;4.47;;
16662;SDS011;8445;51.270;9.434;2024-01-15T14:12:36;4.40;;;4.10;;
16662;SDS011;8445;51.270;9.434;2024-01-15T14:15:02;5.07;;;4.50;;
16662;SDS011;8445;51.270;9.434;2024-01-15T14:17:29;5.47;;;4.63;;
16662;SDS011;8445;51.270;9.434;2024-01-15T14:19:56;4.20;;;3.97;;
16662;SDS011;8445;51.270;9.434;2024-01-15T14:22:21;7.77;;;4.47;;
16662;SDS011;8445;51.270;9.434;2024-01-15T14:24:48;4.63;;;4.33;;
16662;SDS011;8445;51.270;9.434;2024-01-15T14:27:16;5.70;;;4.60;;
16662;SDS011;8445;51.270;9.434;2024-01-15T14:29:42;7.33;;;4.77;;
16662;SDS011;8445;51.270;9.434;2024-01-15T14:32:09;6.53;;;4.67;;
16662;SDS011;8445;51.270;9.434;2024-01-15T14:34:37;7.37;;;4.60;;
16662;SDS011;8445;51.270;9.434;2024-01-15T14:37:04;7.37;;;4.80;;
16662;SDS011;8445;51.270;9.434;2024-01-15T14:39:36;5.40;;;4.73;;
16662;SDS011;8445;51.270;9.434;2024-01-15T14:42:02;9.10;;;5.10;;
16662;SDS011;8445;51.270;9.434;2024-01-15T14:44:31;5.87;;;4.43;;
16662;SDS011;8445;51.270;9.434;2024-01-15T14:47:00;7.07;;;4.57;;
16662;SDS011;8445;51.270;9.434;2024-01-15T14:49:27;4.93;;;4.47;;
16662;SDS011;8445;51.270;9.434;2024-01-15T14:51:52;4.90;;;4.60;;
16662;SDS011;8445;51.270;9.434;2024-01-15T14:54:19;4.80;;;4.50;;